Time;durP1;ratioP1;P1;durP2;ratioP2;P2;SDS_P1;SDS_P2;PMS_P1;PMS_P2;Temp;Humidity;BMP_temperature;BMP_pressure;BME280_temperature;BME280_humidity;BME280_pressure;Samples;Min_cycle;Max_cycle;Signal;HPM_P1;HPM_P2
2021/07/05 00:02:14;;;;;;;12.23;10.87;;;14.90;99.90;;;;;;5012843;28;20266;-67
2021/07/05 00:04:40;;;;;;;11.73;10.60;;;14.90;99.90;;;;;;5013195;28;20528;-67
2021/07/05 00:07:07;;;;;;;12.97;11.27;;;14.80;99.90;;;;;;5012802;28;20191;-67
2021/07/05 00:09:34;;;;;;;12.10;10.80;;;14.80;99.90;;;;;;5013236;28;20172;-67
2021/07/05 00:12:00;;;;;;;13.73;10.50;;;14.80;99.90;;;;;;5012894;28;20657;-67
2021/07/05 00:14:25;;;;;;;11.37;10.33;;;14.80;99.90;;;;;;5012981;28;20183;-67
2021/07/05 00:16:51;;;;;;;12.10;10.80;;;14.70;99.90;;;;;;5012698;28;20262;-68
2021/07/05 00:19:17;;;;;;;11.13;10.13;;;14.70;99.90;;;;;;5012837;28;20263;-67
2021/07/05 00:21:42;;;;;;;13.03;11.13;;;14.70;99.90;;;;;;5012719;28;20196;-67
2021/07/05 00:24:08;;;;;;;14.53;10.93;;;14.70;99.90;;;;;;5012839;28;20180;-67
2021/07/05 00:26:34;;;;;;;13.43;11.40;;;14.70;99.90;;;;;;5012675;28;20708;-67
2021/07/05 00:29:00;;;;;;;15.37;10.67;;;14.60;99.90;;;;;;5012683;28;20653;-67
2021/07/05 00:31:26;;;;;;;11.67;10.47;;;14.70;99.90;;;;;;5012851;28;20192;-66
2021/07/05 00:33:51;;;;;;;11.20;10.20;;;14.70;99.90;;;;;;5012481;28;20255;-67
2021/07/05 00:36:17;;;;;;;11.67;10.57;;;14.60;99.90;;;;;;5011668;28;20172;-67
2021/07/05 00:38:43;;;;;;;11.83;10.80;;;14.60;99.90;;;;;;5012226;28;20629;-67
2021/07/05 00:41:08;;;;;;;14.20;10.63;;;14.60;99.90;;;;;;4993122;28;20693;-67
2021/07/05 00:43:34;;;;;;;11.07;10.07;;;14.60;99.90;;;;;;4992851;28;20836;-67
2021/07/05 00:46:00;;;;;;;13.83;11.53;;;14.60;99.90;;;;;;5011961;28;20176;-67
2021/07/05 00:48:26;;;;;;;13.53;12.47;;;14.60;99.90;;;;;;5012441;28;20638;-67
2021/07/05 00:50:52;;;;;;;12.70;11.33;;;14.60;99.90;;;;;;5011972;28;20279;-67
2021/07/05 00:53:18;;;;;;;11.40;10.50;;;14.70;99.90;;;;;;5012599;28;20672;-67
2021/07/05 00:55:45;;;;;;;12.83;10.30;;;14.70;99.90;;;;;;5011904;28;20184;-67
2021/07/05 00:58:11;;;;;;;12.27;11.17;;;14.70;99.90;;;;;;5012376;28;20251;-67
2021/07/05 01:00:37;;;;;;;11.47;10.57;;;14.70;99.90;;;;;;5011779;28;20341;-66
2021/07/05 01:03:03;;;;;;;18.27;10.67;;;14.60;99.90;;;;;;5012329;28;20738;-67
2021/07/05 01:05:29;;;;;;;14.30;11.53;;;14.70;99.90;;;;;;5011932;28;20262;-67
2021/07/05 01:07:55;;;;;;;15.27;13.80;;;14.70;99.90;;;;;;5012025;28;20211;-67
2021/07/05 01:10:22;;;;;;;13.13;11.83;;;14.80;99.90;;;;;;5011882;28;20200;-67
2021/07/05 01:12:48;;;;;;;14.13;12.70;;;14.80;99.90;;;;;;5011450;28;20255;-67
2021/07/05 01:15:17;;;;;;;12.33;11.13;;;14.90;99.90;;;;;;5011985;28;20188;-67
2021/07/05 01:17:43;;;;;;;12.47;11.23;;;14.90;99.90;;;;;;5011743;28;20179;-67
2021/07/05 01:20:12;;;;;;;12.17;11.03;;;14.90;99.90;;;;;;5010572;28;20180;-66
2021/07/05 01:22:39;;;;;;;13.80;11.63;;;14.90;99.90;;;;;;5011967;28;20681;-66
2021/07/05 01:25:08;;;;;;;12.33;10.63;;;14.90;99.90;;;;;;5010784;28;20251;-66
2021/07/05 01:27:35;;;;;;;12.67;11.47;;;14.90;99.90;;;;;;5011572;28;20629;-66
2021/07/05 01:30:00;;;;;;;13.30;10.93;;;14.80;99.90;;;;;;5011855;28;20263;-66
2021/07/05 01:32:26;;;;;;;11.67;10.63;;;14.80;99.90;;;;;;5011912;28;20258;-67
2021/07/05 01:34:52;;;;;;;12.10;10.90;;;14.80;99.90;;;;;;5011470;28;20271;-67
2021/07/05 01:37:17;;;;;;;11.30;10.20;;;14.90;99.90;;;;;;5010901;28;20172;-67
2021/07/05 01:39:43;;;;;;;12.77;11.57;;;14.90;99.90;;;;;;5011501;28;20181;-67
2021/07/05 01:42:10;;;;;;;14.00;12.03;;;14.90;99.90;;;;;;5011563;28;20621;-67
2021/07/05 01:44:36;;;;;;;13.30;12.10;;;14.90;99.90;;;;;;5011717;28;20169;-67
2021/07/05 01:47:03;;;;;;;14.90;12.77;;;14.80;99.90;;;;;;5011561;28;20650;-67
2021/07/05 01:49:29;;;;;;;13.47;12.10;;;14.80;99.90;;;;;;5011500;28;20239;-67
2021/07/05 01:51:55;;;;;;;13.90;12.50;;;14.80;99.90;;;;;;5011818;28;20199;-67
2021/07/05 01:54:21;;;;;;;14.20;12.87;;;14.80;99.90;;;;;;5011502;28;20190;-67
2021/07/05 01:56:47;;;;;;;12.73;11.63;;;14.90;99.90;;;;;;5011402;28;20219;-67
2021/07/05 01:59:13;;;;;;;13.00;11.70;;;14.90;99.90;;;;;;5011623;28;20180;-67
2021/07/05 02:01:39;;;;;;;13.77;12.37;;;15.00;99.90;;;;;;5011324;28;20216;-66
2021/07/05 02:04:06;;;;;;;13.73;12.37;;;15.00;99.90;;;;;;5019446;22;20234;-72
2021/07/05 02:06:32;;;;;;;16.57;12.20;;;15.00;99.90;;;;;;5010590;28;20176;-70
2021/07/05 02:08:58;;;;;;;13.53;11.97;;;15.00;99.90;;;;;;5011389;28;20619;-68
2021/07/05 02:11:24;;;;;;;17.30;16.03;;;15.00;99.90;;;;;;5012424;28;20541;-68
2021/07/05 02:13:51;;;;;;;17.50;16.27;;;15.10;99.90;;;;;;4994928;28;20288;-70
2021/07/05 02:16:17;;;;;;;17.43;15.93;;;15.10;99.90;;;;;;4992489;28;20219;-70
2021/07/05 02:18:43;;;;;;;15.90;12.33;;;15.20;99.90;;;;;;5008059;28;20223;-69
2021/07/05 02:21:09;;;;;;;11.50;10.50;;;15.20;99.90;;;;;;5012510;28;20220;-70
2021/07/05 02:23:36;;;;;;;10.80;9.90;;;15.20;99.90;;;;;;5011665;28;20219;-70
2021/07/05 02:26:03;;;;;;;12.10;11.00;;;15.20;99.90;;;;;;5015411;28;20196;-70
2021/07/05 02:28:31;;;;;;;17.93;11.07;;;15.20;99.90;;;;;;5015815;28;20187;-70
2021/07/05 02:30:57;;;;;;;11.07;10.07;;;15.20;99.90;;;;;;5016059;28;20164;-70
2021/07/05 02:33:25;;;;;;;14.97;13.47;;;15.20;99.90;;;;;;5015950;28;20550;-70
2021/07/05 02:35:52;;;;;;;16.73;15.53;;;15.20;99.90;;;;;;5015622;28;20183;-69
2021/07/05 02:38:19;;;;;;;11.93;11.03;;;15.20;99.90;;;;;;5015462;28;20184;-69
2021/07/05 02:40:48;;;;;;;11.10;10.23;;;15.20;99.90;;;;;;5015631;28;20180;-69
2021/07/05 02:43:15;;;;;;;13.33;12.13;;;15.20;99.90;;;;;;5015513;28;20211;-69
2021/07/05 02:45:42;;;;;;;17.37;16.17;;;15.10;99.90;;;;;;5015512;28;20167;-71
2021/07/05 02:48:10;;;;;;;17.83;15.40;;;15.10;99.90;;;;;;5015205;28;20176;-68
2021/07/05 02:50:38;;;;;;;12.70;10.37;;;15.10;99.90;;;;;;5013767;28;20184;-69
2021/07/05 02:53:05;;;;;;;11.57;10.70;;;15.10;99.90;;;;;;5015213;28;20258;-69
2021/07/05 02:55:30;;;;;;;12.40;11.43;;;15.10;99.90;;;;;;5015751;28;20168;-68
2021/07/05 02:57:57;;;;;;;16.00;14.03;;;15.10;99.90;;;;;;5015049;28;20693;-70
2021/07/05 03:00:29;;;;;;;21.13;19.77;;;15.10;99.90;;;;;;5015240;28;20172;-72
2021/07/05 03:02:55;;;;;;;22.77;21.17;;;15.10;99.90;;;;;;5015086;28;20243;-70
2021/07/05 03:05:26;;;;;;;23.13;21.53;;;15.20;99.90;;;;;;5015410;28;20211;-70
2021/07/05 03:07:52;;;;;;;23.93;22.43;;;15.20;99.90;;;;;;5014685;28;20711;-70
2021/07/05 03:10:30;;;;;;;23.10;21.67;;;15.30;99.90;;;;;;5015100;28;20173;-72
2021/07/05 03:12:57;;;;;;;28.23;26.20;;;15.30;99.90;;;;;;5015220;28;20231;-71
2021/07/05 03:15:23;;;;;;;26.97;24.90;;;15.30;99.90;;;;;;5015066;28;20174;-71
2021/07/05 03:17:49;;;;;;;16.80;15.10;;;15.30;99.90;;;;;;5013539;28;20676;-71
2021/07/05 03:20:20;;;;;;;13.03;11.83;;;15.30;99.90;;;;;;5015341;28;20172;-70
2021/07/05 03:22:48;;;;;;;11.87;10.67;;;15.40;99.90;;;;;;5014967;28;20204;-70
2021/07/05 03:25:16;;;;;;;10.97;10.00;;;15.40;99.90;;;;;;5015420;28;20604;-71
2021/07/05 03:27:42;;;;;;;10.60;8.93;;;15.40;99.90;;;;;;5014481;28;20180;-69
2021/07/05 03:30:10;;;;;;;13.47;9.50;;;15.40;99.90;;;;;;5015397;28;20171;-69
2021/07/05 03:32:36;;;;;;;10.53;9.57;;;15.50;99.90;;;;;;5014857;28;20176;-70
2021/07/05 03:35:05;;;;;;;10.57;9.77;;;15.50;99.90;;;;;;5015013;28;20588;-70
2021/07/05 03:37:31;;;;;;;14.40;13.07;;;15.50;99.90;;;;;;5013021;28;20254;-69
2021/07/05 03:39:56;;;;;;;15.87;14.57;;;15.50;99.90;;;;;;5014724;28;20180;-68
2021/07/05 03:42:22;;;;;;;10.23;9.53;;;15.60;99.90;;;;;;5014561;28;20227;-70
2021/07/05 03:44:48;;;;;;;14.30;13.13;;;15.60;99.90;;;;;;5014391;28;20260;-70
2021/07/05 03:47:13;;;;;;;12.03;11.03;;;15.60;99.90;;;;;;5014405;28;20588;-69
2021/07/05 03:49:39;;;;;;;11.40;10.50;;;15.50;99.90;;;;;;5015233;28;20172;-70
2021/07/05 03:52:05;;;;;;;10.93;9.83;;;15.50;99.90;;;;;;5013939;28;20718;-68
2021/07/05 03:54:30;;;;;;;13.53;9.67;;;15.50;99.90;;;;;;5013393;28;20569;-68
2021/07/05 03:56:56;;;;;;;18.17;16.83;;;15.50;99.90;;;;;;5013026;28;20641;-68
2021/07/05 03:59:22;;;;;;;8.00;7.47;;;15.50;99.90;;;;;;5012128;28;20176;-68
2021/07/05 04:01:48;;;;;;;9.30;8.80;;;15.40;99.90;;;;;;5013127;28;20930;-67
2021/07/05 04:04:13;;;;;;;12.07;11.57;;;15.30;99.90;;;;;;5013199;28;20294;-65
2021/07/05 04:06:39;;;;;;;8.47;8.07;;;15.10;99.90;;;;;;5012704;28;20172;-67
2021/07/05 04:09:06;;;;;;;16.10;15.20;;;15.00;99.90;;;;;;5013372;28;20176;-67
2021/07/05 04:11:32;;;;;;;8.20;7.73;;;14.90;99.90;;;;;;5012976;28;20569;-68
2021/07/05 04:13:58;;;;;;;6.87;6.47;;;14.80;99.90;;;;;;5013129;28;20188;-68
2021/07/05 04:16:25;;;;;;;8.00;7.60;;;14.70;99.90;;;;;;5012662;28;20267;-68
2021/07/05 04:18:51;;;;;;;10.83;10.23;;;14.70;99.90;;;;;;5011657;28;20222;-68
2021/07/05 04:21:16;;;;;;;6.67;6.10;;;14.80;99.90;;;;;;5012947;28;20251;-68
2021/07/05 04:23:42;;;;;;;6.57;6.17;;;14.80;99.90;;;;;;5012911;28;20219;-67
2021/07/05 04:26:08;;;;;;;7.03;6.53;;;14.80;99.90;;;;;;5012547;28;20271;-68
2021/07/05 04:28:34;;;;;;;7.37;6.97;;;14.90;99.90;;;;;;5012721;28;20565;-68
2021/07/05 04:30:59;;;;;;;8.17;7.77;;;14.70;99.90;;;;;;5012683;28;20506;-68
2021/07/05 04:33:25;;;;;;;10.90;10.33;;;14.70;99.90;;;;;;5012728;28;20192;-68
2021/07/05 04:35:51;;;;;;;10.27;9.77;;;14.60;99.90;;;;;;5011551;28;20194;-67
2021/07/05 04:38:17;;;;;;;9.33;8.83;;;14.60;99.90;;;;;;5012742;28;20172;-68
2021/07/05 04:40:43;;;;;;;10.77;9.87;;;14.60;99.90;;;;;;5012482;28;20192;-67
2021/07/05 04:43:10;;;;;;;7.70;7.20;;;14.60;99.90;;;;;;5012551;28;20211;-68
2021/07/05 04:45:37;;;;;;;6.67;6.27;;;14.70;99.90;;;;;;5011454;28;20179;-68
2021/07/05 04:48:06;;;;;;;6.60;6.30;;;14.80;99.90;;;;;;5011714;28;20234;-68
2021/07/05 04:50:32;;;;;;;6.93;6.57;;;14.90;99.90;;;;;;5012261;28;20195;-68
2021/07/05 04:52:59;;;;;;;6.07;5.77;;;14.90;99.90;;;;;;5012387;28;20208;-69
2021/07/05 04:55:25;;;;;;;6.87;6.27;;;15.00;99.90;;;;;;5012169;28;20169;-68
2021/07/05 04:57:52;;;;;;;7.90;7.50;;;15.10;99.90;;;;;;5011317;28;20186;-68
2021/07/05 05:00:25;;;;;;;7.00;6.60;;;15.10;99.90;;;;;;5012352;28;20180;-67
2021/07/05 05:02:52;;;;;;;6.43;6.13;;;15.10;99.90;;;;;;5011686;28;20727;-68
2021/07/05 05:05:18;;;;;;;6.30;5.80;;;15.10;99.90;;;;;;5012381;28;20176;-67
2021/07/05 05:07:43;;;;;;;6.80;6.20;;;15.20;99.90;;;;;;5011801;28;20187;-67
2021/07/05 05:10:12;;;;;;;6.40;6.10;;;15.20;99.90;;;;;;5012273;28;20254;-68
2021/07/05 05:12:39;;;;;;;7.13;6.73;;;15.20;99.90;;;;;;5011827;28;20184;-67
2021/07/05 05:15:06;;;;;;;6.23;5.83;;;15.10;99.90;;;;;;5012174;28;20214;-67
2021/07/05 05:17:32;;;;;;;6.60;6.10;;;15.00;99.90;;;;;;5011561;28;20175;-67
2021/07/05 05:19:58;;;;;;;6.97;6.43;;;14.90;99.90;;;;;;5012162;28;20245;-67
2021/07/05 05:22:23;;;;;;;6.57;6.17;;;14.90;99.90;;;;;;5011672;28;20210;-65
2021/07/05 05:24:49;;;;;;;6.70;6.40;;;15.00;99.90;;;;;;5012008;28;20247;-68
2021/07/05 05:27:15;;;;;;;6.87;6.43;;;15.10;99.90;;;;;;5011441;28;20547;-67
2021/07/05 05:29:41;;;;;;;7.20;6.80;;;15.10;99.90;;;;;;5011971;28;20176;-67
2021/07/05 05:32:07;;;;;;;7.07;6.67;;;15.10;99.90;;;;;;5011902;28;20176;-67
2021/07/05 05:34:33;;;;;;;7.40;6.90;;;15.20;99.90;;;;;;5011850;28;20200;-67
2021/07/05 05:36:59;;;;;;;7.17;6.77;;;15.20;99.90;;;;;;5010598;28;20187;-67
2021/07/05 05:39:25;;;;;;;7.40;6.97;;;15.30;99.90;;;;;;5011903;28;20540;-67
2021/07/05 05:41:50;;;;;;;8.73;8.23;;;15.40;99.90;;;;;;5011600;28;20717;-65
2021/07/05 05:44:16;;;;;;;8.17;7.67;;;15.50;99.90;;;;;;5011747;28;20201;-65
2021/07/05 05:46:42;;;;;;;7.40;6.90;;;15.50;99.90;;;;;;5009435;28;20187;-65
2021/07/05 05:49:07;;;;;;;6.70;6.40;;;15.70;99.90;;;;;;5011473;28;20184;-66
2021/07/05 05:51:35;;;;;;;7.80;7.40;;;15.80;99.90;;;;;;5011548;28;20176;-65
2021/07/05 05:54:05;;;;;;;6.80;6.40;;;15.90;99.90;;;;;;5011729;28;20594;-65
2021/07/05 05:56:32;;;;;;;6.90;6.40;;;16.00;99.90;;;;;;5011120;28;20207;-65
2021/07/05 05:59:03;;;;;;;7.00;6.60;;;16.10;99.90;;;;;;5011749;28;20172;-65
2021/07/05 06:01:30;;;;;;;9.23;8.63;;;16.20;99.90;;;;;;5015421;28;20190;-65
2021/07/05 06:03:56;;;;;;;7.23;6.73;;;16.30;99.90;;;;;;5015246;28;20204;-65
2021/07/05 06:06:22;;;;;;;6.47;6.07;;;16.40;99.90;;;;;;5015157;28;20207;-65
2021/07/05 06:08:48;;;;;;;6.67;6.27;;;16.40;99.90;;;;;;5014659;28;20220;-66
2021/07/05 06:11:14;;;;;;;6.70;6.30;;;16.60;99.90;;;;;;5015009;28;20179;-66
2021/07/05 06:13:40;;;;;;;7.53;7.03;;;16.80;99.90;;;;;;5015268;28;20287;-65
2021/07/05 06:16:06;;;;;;;6.73;6.23;;;16.80;99.90;;;;;;5015047;28;20172;-65
2021/07/05 06:18:32;;;;;;;7.90;6.93;;;16.90;99.90;;;;;;5015066;28;20172;-65
2021/07/05 06:20:57;;;;;;;7.27;6.87;;;16.90;99.90;;;;;;5014887;28;20584;-67
2021/07/05 06:23:27;;;;;;;6.93;6.53;;;16.80;99.90;;;;;;5015072;28;20227;-67
2021/07/05 06:25:54;;;;;;;7.80;7.20;;;16.90;99.90;;;;;;5015050;28;20195;-67
2021/07/05 06:28:22;;;;;;;8.37;7.67;;;16.90;99.90;;;;;;5014740;28;20176;-67
2021/07/05 06:30:49;;;;;;;7.63;6.93;;;17.00;99.90;;;;;;5014950;28;20176;-67
2021/07/05 06:33:16;;;;;;;8.23;7.60;;;17.10;99.90;;;;;;5014685;28;20208;-67
2021/07/05 06:35:43;;;;;;;7.27;6.87;;;17.10;99.90;;;;;;5013698;28;20183;-67
2021/07/05 06:38:10;;;;;;;7.77;7.17;;;17.20;99.90;;;;;;5014741;28;20180;-67
2021/07/05 06:40:36;;;;;;;6.60;6.20;;;17.30;99.90;;;;;;5014691;28;20176;-67
2021/07/05 06:43:03;;;;;;;7.13;6.63;;;17.30;99.90;;;;;;5014414;28;20203;-67
2021/07/05 06:45:28;;;;;;;6.67;6.27;;;17.20;99.90;;;;;;5015429;28;20168;-67
2021/07/05 06:47:54;;;;;;;6.77;6.47;;;17.20;99.90;;;;;;5019801;28;20172;-67
2021/07/05 06:50:20;;;;;;;6.43;6.10;;;17.60;99.90;;;;;;5034524;28;20170;-67
2021/07/05 06:52:46;;;;;;;7.30;6.60;;;18.00;99.90;;;;;;5034188;28;20195;-67
2021/07/05 06:55:12;;;;;;;6.70;6.20;;;18.10;99.90;;;;;;5014648;28;20549;-65
2021/07/05 06:57:39;;;;;;;5.87;5.57;;;18.10;99.90;;;;;;5014163;28;20173;-67
2021/07/05 07:00:11;;;;;;;6.13;5.73;;;18.50;99.90;;;;;;5014337;28;20180;-67
2021/07/05 07:02:38;;;;;;;6.87;6.50;;;19.00;99.90;;;;;;5013674;28;20615;-65
2021/07/05 07:05:07;;;;;;;6.13;5.77;;;19.40;99.90;;;;;;5013712;28;20549;-65
2021/07/05 07:07:33;;;;;;;6.47;6.07;;;19.70;99.90;;;;;;5013909;28;20258;-65
2021/07/05 07:09:59;;;;;;;6.40;6.00;;;19.70;99.90;;;;;;5014134;28;20207;-65
2021/07/05 07:12:25;;;;;;;6.93;6.53;;;19.80;99.90;;;;;;5013117;28;20653;-67
2021/07/05 07:14:51;;;;;;;7.40;6.93;;;19.70;99.90;;;;;;5014093;28;20180;-67
2021/07/05 07:17:31;;;;;;;7.00;6.50;;;19.70;99.90;;;;;;5013628;28;20184;-68
2021/07/05 07:19:57;;;;;;;7.00;6.60;;;19.60;99.90;;;;;;5014039;28;20267;-67
2021/07/05 07:22:22;;;;;;;7.47;7.07;;;19.60;99.90;;;;;;5013992;28;20282;-67
2021/07/05 07:24:48;;;;;;;6.97;6.37;;;19.50;99.90;;;;;;5013840;28;20176;-67
2021/07/05 07:27:14;;;;;;;7.50;7.10;;;19.50;99.90;;;;;;5013562;28;20172;-67
2021/07/05 07:29:40;;;;;;;6.90;6.40;;;19.50;99.90;;;;;;5014000;28;20251;-67
2021/07/05 07:32:06;;;;;;;6.87;6.50;;;19.50;99.90;;;;;;5013633;28;20763;-67
2021/07/05 07:34:32;;;;;;;6.60;6.20;;;19.60;99.90;;;;;;5013840;28;20223;-67
2021/07/05 07:37:02;;;;;;;6.97;6.57;;;19.70;99.90;;;;;;5012468;28;20263;-67
2021/07/05 07:39:53;;;;;;;7.67;7.23;;;19.70;99.90;;;;;;5013291;28;20256;-67
2021/07/05 07:42:16;;;;;;;8.00;7.30;;;19.90;99.90;;;;;;5013312;28;20200;-67
2021/07/05 07:44:42;;;;;;;6.70;6.15;;;20.10;99.90;;;;;;5013527;28;20199;-65
2021/07/05 07:47:07;;;;;;;7.13;6.63;;;20.50;99.90;;;;;;5013160;28;20184;-65
2021/07/05 07:49:33;;;;;;;5.88;5.57;;;20.90;99.90;;;;;;5013550;28;20551;-65
2021/07/05 07:52:03;;;;;;;5.20;4.90;;;21.20;99.90;;;;;;5013422;28;20190;-65
2021/07/05 07:54:29;;;;;;;6.07;5.65;;;21.60;99.90;;;;;;5013377;28;20242;-65
2021/07/05 07:56:54;;;;;;;5.95;5.65;;;21.80;99.90;;;;;;5012958;28;20176;-65
2021/07/05 07:59:21;;;;;;;5.80;5.38;;;21.70;99.90;;;;;;5013252;28;20176;-65
2021/07/05 08:01:47;;;;;;;5.72;5.22;;;21.70;99.90;;;;;;5013304;28;20250;-67
2021/07/05 08:04:13;;;;;;;5.40;5.10;;;21.40;99.90;;;;;;5013000;28;20208;-67
2021/07/05 08:06:40;;;;;;;7.90;5.72;;;21.30;99.90;;;;;;5012914;28;20252;-67
2021/07/05 08:09:07;;;;;;;7.47;6.68;;;21.20;99.90;;;;;;5012886;28;20183;-65
2021/07/05 08:11:33;;;;;;;5.87;5.47;;;21.20;99.90;;;;;;5012803;28;20178;-65
2021/07/05 08:13:59;;;;;;;6.47;6.07;;;21.10;99.90;;;;;;5013043;28;20192;-65
2021/07/05 08:16:25;;;;;;;6.80;6.18;;;21.20;99.90;;;;;;5012531;28;20188;-65
2021/07/05 08:18:51;;;;;;;6.37;5.60;;;21.30;99.90;;;;;;5011633;28;20250;-65
2021/07/05 08:21:17;;;;;;;6.60;6.00;;;21.50;99.90;;;;;;5012671;28;20271;-65
2021/07/05 08:23:43;;;;;;;5.60;5.20;;;21.50;99.90;;;;;;5032410;28;20199;-65
2021/07/05 08:26:09;;;;;;;6.07;5.67;;;21.40;99.90;;;;;;5025704;28;20523;-64
2021/07/05 08:28:34;;;;;;;5.97;5.57;;;21.40;99.90;;;;;;5012639;28;20168;-65
2021/07/05 08:31:01;;;;;;;5.82;5.53;;;21.40;99.90;;;;;;5012642;28;20736;-65
2021/07/05 08:33:27;;;;;;;7.40;6.70;;;21.30;99.90;;;;;;5012782;28;20227;-65
2021/07/05 08:35:53;;;;;;;6.15;5.65;;;21.20;99.90;;;;;;5011441;28;20187;-65
2021/07/05 08:38:18;;;;;;;5.60;5.20;;;21.40;99.90;;;;;;5012651;28;20164;-65
2021/07/05 08:40:44;;;;;;;6.57;5.72;;;21.80;99.90;;;;;;5011855;28;20184;-65
2021/07/05 08:43:11;;;;;;;5.85;5.55;;;22.00;99.90;;;;;;5012233;28;20240;-65
2021/07/05 08:45:37;;;;;;;5.68;5.28;;;22.10;99.90;;;;;;5012202;28;20187;-65
2021/07/05 08:48:03;;;;;;;5.47;5.00;;;22.00;99.90;;;;;;5012273;28;20542;-65
2021/07/05 08:50:29;;;;;;;5.15;4.85;;;22.00;99.90;;;;;;5012145;28;20192;-65
2021/07/05 08:52:56;;;;;;;5.13;4.72;;;22.00;99.90;;;;;;5012335;28;20207;-67
2021/07/05 08:55:25;;;;;;;5.70;5.15;;;21.90;99.90;;;;;;5010796;28;20176;-67
2021/07/05 08:57:51;;;;;;;5.30;5.00;;;21.80;99.90;;;;;;5012044;28;20230;-67
2021/07/05 09:00:28;;;;;;;5.57;5.07;;;21.60;99.90;;;;;;5012096;28;20180;-67
2021/07/05 09:02:59;;;;;;;5.70;5.30;;;21.40;99.90;;;;;;5011853;28;20602;-67
2021/07/05 09:05:25;;;;;;;6.60;5.50;;;21.40;99.90;;;;;;5012189;28;20203;-67
2021/07/05 09:08:08;;;;;;;5.10;4.70;;;21.40;99.90;;;;;;5011710;28;20176;-67
2021/07/05 09:10:41;;;;;;;4.70;4.40;;;21.60;99.90;;;;;;5011979;28;20172;-67
2021/07/05 09:13:09;;;;;;;5.73;5.20;;;21.80;99.90;;;;;;5012051;28;20228;-67
2021/07/05 09:15:38;;;;;;;5.20;4.82;;;21.90;99.90;;;;;;5011942;28;20180;-67
2021/07/05 09:18:44;;;;;;;5.07;4.78;;;22.30;99.90;;;;;;5011626;28;20242;-65
2021/07/05 09:21:20;;;;;;;5.47;5.07;;;22.50;99.90;;;;;;5012145;28;20646;-65
2021/07/05 09:23:53;;;;;;;5.05;4.40;;;22.60;99.90;;;;;;5011774;28;20204;-65
2021/07/05 09:26:21;;;;;;;5.18;4.70;;;22.70;99.90;;;;;;5010405;28;20599;-64
2021/07/05 09:28:49;;;;;;;5.03;4.72;;;22.80;99.90;;;;;;5011742;28;20633;-65
2021/07/05 09:31:26;;;;;;;5.25;4.82;;;23.00;99.90;;;;;;5011319;28;20180;-65
2021/07/05 09:33:52;;;;;;;5.28;4.97;;;23.10;99.90;;;;;;5011311;28;20522;-65
2021/07/05 09:36:22;;;;;;;4.93;4.57;;;23.20;99.90;;;;;;5009945;28;20267;-65
2021/07/05 09:38:48;;;;;;;4.70;4.40;;;23.50;99.90;;;;;;5011450;28;20172;-65
2021/07/05 09:41:19;;;;;;;4.60;4.30;;;23.90;99.90;;;;;;5011021;28;20192;-65
2021/07/05 09:43:46;;;;;;;4.30;4.10;;;24.40;99.90;;;;;;5011671;28;20207;-65
2021/07/05 09:46:12;;;;;;;4.55;4.28;;;24.70;99.90;;;;;;5011182;28;20204;-65
2021/07/05 09:48:47;;;;;;;4.57;4.28;;;25.10;99.90;;;;;;5010359;28;20180;-65
2021/07/05 09:51:18;;;;;;;4.65;4.40;;;25.70;99.90;;;;;;5011463;28;20173;-65
2021/07/05 09:53:44;;;;;;;4.47;4.22;;;26.20;99.90;;;;;;5011725;28;20572;-65
2021/07/05 09:56:27;;;;;;;4.07;3.88;;;26.20;99.90;;;;;;5011407;28;20654;-65
2021/07/05 09:59:00;;;;;;;4.32;4.03;;;26.40;99.90;;;;;;5010333;28;20231;-65
2021/07/05 10:01:51;;;;;;;4.22;3.83;;;26.60;99.90;;;;;;5011440;28;20190;-65
2021/07/05 10:04:28;;;;;;;5.03;4.30;;;26.30;99.90;;;;;;5011579;28;20307;-65
2021/07/05 10:06:57;;;;;;;4.60;4.30;;;26.10;99.90;;;;;;5011358;28;20180;-65
2021/07/05 10:09:40;;;;;;;4.85;4.55;;;26.10;99.90;;;;;;5011071;28;20176;-65
2021/07/05 10:12:31;;;;;;;4.00;3.80;;;25.90;99.90;;;;;;5011599;28;20264;-65
2021/07/05 10:15:10;;;;;;;5.50;5.07;;;25.60;99.90;;;;;;5011056;28;20242;-65
2021/07/05 10:17:42;;;;;;;4.72;4.32;;;25.40;99.90;;;;;;5011272;28;20259;-65
2021/07/05 10:20:11;;;;;;;5.82;5.47;;;25.50;99.90;;;;;;5010173;28;20536;-65
2021/07/05 10:22:45;;;;;;;5.13;4.22;;;25.90;99.90;;;;;;5011164;28;20250;-65
2021/07/05 10:25:11;;;;;;;4.82;4.63;;;26.20;99.90;;;;;;5011451;28;20672;-65
2021/07/05 10:27:38;;;;;;;4.78;4.45;;;26.10;99.90;;;;;;5010621;28;20200;-65
2021/07/05 10:30:09;;;;;;;4.88;4.65;;;25.80;99.90;;;;;;5029303;28;20583;-65
2021/07/05 10:32:35;;;;;;;4.20;4.00;;;25.30;99.90;;;;;;5014798;28;20192;-65
2021/07/05 10:35:02;;;;;;;4.75;4.45;;;25.10;99.90;;;;;;5010344;28;20179;-65
2021/07/05 10:37:41;;;;;;;4.63;4.30;;;25.00;99.90;;;;;;5010058;28;20524;-65
2021/07/05 10:40:10;;;;;;;5.50;5.10;;;25.00;99.90;;;;;;5010850;28;20259;-65
2021/07/05 10:42:41;;;;;;;4.93;4.63;;;25.30;99.90;;;;;;5010259;28;20547;-65
2021/07/05 10:45:17;;;;;;;4.88;4.68;;;25.50;99.90;;;;;;5030925;28;20255;-65
2021/07/05 10:47:55;;;;;;;4.28;3.88;;;26.00;99.90;;;;;;5033384;28;20170;-65
2021/07/05 10:50:43;;;;;;;4.38;4.00;;;26.70;99.90;;;;;;5017222;28;20191;-65
2021/07/05 10:53:13;;;;;;;5.85;5.38;;;27.50;99.90;;;;;;5014545;28;20192;-65
2021/07/05 10:55:50;;;;;;;4.32;4.13;;;28.20;99.90;;;;;;5013081;28;20195;-65
2021/07/05 10:58:22;;;;;;;4.28;4.07;;;28.30;99.90;;;;;;5014423;28;20175;-65
2021/07/05 11:00:50;;;;;;;3.53;3.33;;;28.80;99.90;;;;;;5012970;28;20570;-65
2021/07/05 11:03:38;;;;;;;4.28;3.90;;;29.10;99.90;;;;;;5014075;28;20261;-65
2021/07/05 11:06:27;;;;;;;4.10;3.90;;;29.60;99.90;;;;;;4994579;28;20183;-65
2021/07/05 11:08:53;;;;;;;4.25;4.05;;;30.00;99.90;;;;;;4996735;28;20713;-65
2021/07/05 11:11:19;;;;;;;4.32;4.03;;;29.90;99.90;;;;;;5011650;28;20206;-65
2021/07/05 11:13:46;;;;;;;5.32;4.93;;;29.70;99.90;;;;;;5014000;28;20188;-65
2021/07/05 11:16:13;;;;;;;3.90;3.60;;;29.30;99.90;;;;;;5013126;28;20176;-65
2021/07/05 11:18:38;;;;;;;4.70;4.30;;;28.90;99.90;;;;;;5013803;28;20259;-65
2021/07/05 11:21:04;;;;;;;5.50;5.20;;;28.20;99.90;;;;;;5013963;28;20216;-65
2021/07/05 11:23:55;;;;;;;4.53;4.22;;;27.60;99.90;;;;;;5013912;28;20211;-65
2021/07/05 11:26:23;;;;;;;4.63;4.40;;;27.30;99.90;;;;;;4993445;28;20181;-65
2021/07/05 11:29:29;;;;;;;5.00;4.60;;;27.10;99.90;;;;;;4994141;28;20197;-65
2021/07/05 11:32:00;;;;;;;4.55;4.25;;;26.60;99.90;;;;;;4994404;28;20172;-65
2021/07/05 11:34:37;;;;;;;3.80;3.60;;;26.50;99.90;;;;;;4998385;28;20195;-65
2021/07/05 11:37:14;;;;;;;4.70;4.40;;;26.40;99.90;;;;;;5013756;28;20208;-65
2021/07/05 11:39:46;;;;;;;4.15;3.85;;;26.10;99.90;;;;;;5013305;28;20176;-65
2021/07/05 11:42:13;;;;;;;4.30;4.00;;;25.80;99.90;;;;;;5013693;28;20212;-65
2021/07/05 11:45:05;;;;;;;4.25;4.05;;;25.40;99.90;;;;;;5013349;28;20283;-65
2021/07/05 11:47:37;;;;;;;4.47;4.18;;;25.50;99.90;;;;;;5010557;28;20180;-65
2021/07/05 11:50:14;;;;;;;4.15;3.95;;;25.30;99.90;;;;;;5013387;28;20188;-65
2021/07/05 11:52:52;;;;;;;4.50;4.20;;;25.20;99.90;;;;;;5013486;28;20203;-65
2021/07/05 11:55:20;;;;;;;4.30;4.00;;;24.70;99.90;;;;;;5013193;28;20203;-65
2021/07/05 11:57:47;;;;;;;4.97;4.60;;;24.20;99.90;;;;;;5012719;28;20164;-65
2021/07/05 12:00:14;;;;;;;5.03;4.60;;;23.70;99.90;;;;;;5013725;28;20207;-64
2021/07/05 12:02:39;;;;;;;4.20;4.00;;;23.40;99.90;;;;;;5012768;28;20210;-64
2021/07/05 12:05:07;;;;;;;4.28;4.00;;;23.30;99.90;;;;;;5013203;28;20255;-64
2021/07/05 12:07:34;;;;;;;4.30;4.10;;;23.30;99.90;;;;;;5012958;28;20169;-65
2021/07/05 12:10:00;;;;;;;8.70;5.00;;;23.40;99.90;;;;;;5012986;28;20195;-65
2021/07/05 12:12:26;;;;;;;4.00;3.80;;;23.50;99.90;;;;;;5013173;28;20164;-65
2021/07/05 12:14:52;;;;;;;4.07;3.88;;;23.50;99.90;;;;;;5011205;28;20191;-65
2021/07/05 12:17:20;;;;;;;5.35;4.93;;;23.60;99.90;;;;;;5012814;28;20175;-64
2021/07/05 12:19:47;;;;;;;5.15;4.82;;;23.70;99.90;;;;;;5012732;28;20180;-65
2021/07/05 12:22:19;;;;;;;4.22;4.00;;;23.90;99.90;;;;;;5012976;28;20204;-65
2021/07/05 12:24:47;;;;;;;4.70;4.40;;;24.10;99.90;;;;;;5012246;28;20189;-65
2021/07/05 12:27:16;;;;;;;4.75;4.55;;;24.40;99.90;;;;;;5012747;28;20550;-65
2021/07/05 12:29:50;;;;;;;4.50;4.30;;;24.70;99.90;;;;;;5012106;28;20172;-64
2021/07/05 12:32:26;;;;;;;4.40;4.10;;;24.90;99.90;;;;;;5013333;28;20295;-64
2021/07/05 12:34:57;;;;;;;4.43;4.10;;;25.20;99.90;;;;;;5012719;28;20820;-65
2021/07/05 12:37:29;;;;;;;5.28;4.82;;;25.40;99.90;;;;;;5012354;28;20285;-64
2021/07/05 12:40:10;;;;;;;4.38;4.10;;;25.40;99.90;;;;;;5012577;28;20266;-67
2021/07/05 12:42:56;;;;;;;4.63;4.43;;;25.50;99.90;;;;;;5012463;28;20195;-64
2021/07/05 12:45:33;;;;;;;4.35;4.15;;;25.50;99.90;;;;;;5012370;28;20709;-64
2021/07/05 12:48:08;;;;;;;4.85;4.55;;;25.50;99.90;;;;;;5011010;28;20226;-65